createdAt,value
2018-12-19T00:00:14.678Z,0.88
2018-12-19T00:01:15.084Z,0.92
2018-12-19T00:02:15.491Z,0.99
2018-12-19T00:03:16.899Z,1.03
2018-12-19T00:04:17.709Z,1.06
2018-12-19T00:05:18.951Z,1.04
2018-12-19T00:06:19.360Z,1.09
2018-12-19T00:07:20.767Z,1.1
2018-12-19T00:08:21.926Z,1.07
2018-12-19T00:09:22.334Z,1.02
2018-12-19T00:10:23.741Z,1.1
2018-12-19T00:11:24.703Z,1.07
2018-12-19T00:12:25.942Z,1.1
2018-12-19T00:13:26.629Z,1.04
2018-12-19T00:14:27.747Z,1.09
2018-12-19T00:15:28.874Z,1.03
2018-12-19T00:16:30.114Z,1.1
2018-12-19T00:17:30.522Z,1.03
2018-12-19T00:18:30.946Z,1.06
2018-12-19T00:19:31.909Z,1.03
2018-12-19T00:20:32.319Z,1.16
2018-12-19T00:21:32.726Z,0.99
2018-12-19T00:22:33.412Z,0.95
2018-12-19T00:23:33.543Z,0.99
2018-12-19T00:24:34.655Z,1.03
2018-12-19T00:25:34.616Z,1
2018-12-19T00:26:35.305Z,0.99
2018-12-19T00:27:36.265Z,1.03
2018-12-19T00:28:36.675Z,1.04
2018-12-19T00:29:37.802Z,0.99
2018-12-19T00:30:39.214Z,1.12
2018-12-19T00:31:39.901Z,1.06
2018-12-19T00:32:40.868Z,1.13
2018-12-19T00:33:41.281Z,1.02
2018-12-19T00:34:42.115Z,1.1
2018-12-19T00:35:42.800Z,1.12
2018-12-19T00:36:43.210Z,1.18
2018-12-19T00:37:43.619Z,1.06
2018-12-19T00:38:44.582Z,1.07
2018-12-19T00:39:44.711Z,0.96
2018-12-19T00:40:46.122Z,1.03
2018-12-19T00:41:46.086Z,1
2018-12-19T00:42:47.492Z,0.95
2018-12-19T00:43:47.898Z,0.91
2018-12-19T00:44:48.606Z,0.95
2018-12-19T00:45:49.049Z,1.03
2018-12-19T00:46:49.734Z,1.03
2018-12-19T00:47:50.767Z,1.09
2018-12-19T00:48:51.227Z,1.18
2018-12-19T00:49:51.637Z,1.2
2018-12-19T00:50:51.764Z,1.14
2018-12-19T00:51:52.483Z,1.14
2018-12-19T00:52:53.168Z,1.14
2018-12-19T00:53:53.966Z,1.14
2018-12-19T00:54:54.345Z,1.1
2018-12-19T00:55:55.306Z,1.18
2018-12-19T00:56:55.992Z,1.1
2018-12-19T00:57:56.677Z,1.21
2018-12-19T00:58:57.086Z,1.16
2018-12-19T00:59:57.495Z,1.2
2018-12-19T01:00:57.955Z,1.25
2018-12-19T01:01:58.917Z,1.2
2018-12-19T01:02:59.327Z,1.21
2018-12-19T01:04:00.014Z,1.1
2018-12-19T01:05:00.405Z,1.13
2018-12-19T01:06:00.815Z,1.12
2018-12-19T01:07:02.063Z,1.12
2018-12-19T01:08:03.026Z,1.13
2018-12-19T01:09:03.711Z,1.12
2018-12-19T01:10:04.398Z,1.12
2018-12-19T01:11:04.805Z,1.06
2018-12-19T01:12:06.492Z,1.1
2018-12-19T01:13:06.456Z,1.12
2018-12-19T01:14:07.858Z,1.06
2018-12-19T01:15:08.249Z,1.09
2018-12-19T01:16:08.504Z,1.14
2018-12-19T01:17:09.189Z,1.09
2018-12-19T01:18:09.646Z,1.06
2018-12-19T01:19:10.054Z,1.2
2018-12-19T01:20:10.459Z,1.06
2018-12-19T01:21:11.144Z,1.06
2018-12-19T01:22:11.554Z,1
2018-12-19T01:23:12.689Z,0.88
2018-12-19T01:24:13.097Z,0.89
2018-12-19T01:25:13.691Z,0.88
2018-12-19T01:26:14.375Z,0.88
2018-12-19T01:27:15.176Z,0.82
2018-12-19T01:28:15.864Z,0.74
2018-12-19T04:17:22.499Z,1.36
2018-12-19T04:18:23.436Z,1.48
2018-12-19T04:19:24.330Z,1.46
2018-12-19T04:20:24.855Z,1.43
2018-12-19T04:21:25.831Z,1.38
2018-12-19T04:22:27.083Z,1.43
2018-12-19T04:23:27.331Z,1.42
2018-12-19T04:24:28.860Z,1.39
2018-12-19T04:25:29.394Z,1.34
2018-12-19T04:26:29.638Z,1.27
2018-12-19T04:27:30.680Z,1.31
2018-12-19T04:28:31.633Z,1.14
2018-12-19T04:29:31.885Z,1.18
2018-12-19T04:30:31.867Z,1.06
2018-12-19T04:31:33.115Z,1.04
2018-12-19T04:32:33.807Z,1.09
2018-12-19T04:33:35.066Z,1.03
2018-12-19T04:34:34.492Z,1.04
2018-12-19T04:35:35.623Z,1.03
2018-12-19T04:36:37.038Z,1.03
2018-12-19T04:37:37.732Z,1.02
2018-12-19T04:38:38.832Z,0.99
2018-12-19T04:39:39.799Z,1.06
2018-12-19T04:40:40.508Z,1.13
2018-12-19T04:41:41.202Z,1.12
2018-12-19T04:42:42.173Z,1.18
2018-12-19T04:43:43.586Z,1.27
2018-12-19T04:44:45.113Z,1.3
2018-12-19T04:45:45.563Z,1.28
2018-12-19T04:46:46.527Z,1.28
2018-12-19T04:47:47.501Z,1.27
2018-12-19T04:48:48.327Z,1.32
2018-12-19T04:49:49.021Z,1.34
2018-12-19T04:50:49.992Z,1.34
2018-12-19T04:51:51.527Z,1.4
2018-12-19T04:52:51.943Z,1.42
2018-12-19T04:53:53.360Z,1.56
2018-12-19T04:54:53.610Z,1.6
2018-12-19T04:55:54.298Z,1.52
2018-12-19T04:56:54.440Z,1.6
2018-12-19T04:57:54.905Z,1.57
2018-12-19T04:58:55.857Z,1.63
2018-12-19T04:59:57.384Z,1.64
2018-12-19T05:00:57.354Z,1.76
2018-12-19T05:01:57.889Z,1.68
2018-12-19T05:02:57.881Z,1.78
2018-12-19T05:03:59.321Z,1.79
2018-12-19T05:05:00.199Z,1.78
2018-12-19T05:06:02.187Z,1.84
2018-12-19T05:07:01.213Z,1.92
2018-12-19T05:08:02.325Z,1.88
2018-12-19T05:09:02.433Z,1.93
2018-12-19T05:10:02.850Z,1.95
2018-12-19T05:11:03.609Z,1.95
2018-12-19T05:12:04.580Z,1.95
2018-12-19T05:13:04.998Z,1.97
2018-12-19T05:14:05.966Z,1.97
2018-12-19T05:15:07.213Z,1.92
2018-12-19T05:16:07.352Z,1.93
2018-12-19T05:17:08.484Z,2.01
2018-12-19T05:18:09.181Z,2.08
2018-12-19T05:19:10.134Z,2.12
2018-12-19T05:20:10.662Z,2.16
2018-12-19T05:21:10.799Z,2.12
2018-12-19T05:22:11.936Z,2.22
2018-12-19T05:23:12.348Z,2.26
2018-12-19T05:24:12.761Z,2.33
2018-12-19T05:25:13.174Z,2.3
2018-12-19T05:26:13.863Z,2.4
2018-12-19T05:27:14.572Z,2.33
2018-12-19T05:28:15.592Z,2.36
2018-12-19T05:29:15.861Z,2.4
2018-12-19T05:30:17.663Z,2.39
2018-12-19T05:31:18.076Z,2.52
2018-12-19T05:32:18.323Z,2.58
2018-12-19T05:33:19.295Z,2.59
2018-12-19T05:34:19.711Z,2.69
2018-12-19T05:35:21.402Z,2.62
2018-12-19T05:36:21.652Z,2.69
2018-12-19T05:37:22.342Z,2.7
2018-12-19T05:38:23.587Z,2.7
2018-12-19T05:39:23.732Z,2.72
2018-12-19T05:40:24.148Z,2.58
2018-12-19T05:41:24.842Z,2.59
2018-12-19T05:42:25.534Z,2.52
2018-12-19T05:43:25.945Z,2.57
2018-12-19T05:44:27.473Z,2.65
2018-12-19T05:45:27.892Z,2.69
2018-12-19T05:46:28.864Z,2.61
2018-12-19T05:47:29.558Z,2.64
2018-12-19T05:48:30.260Z,2.73
2018-12-19T05:49:31.685Z,2.68
2018-12-19T05:50:32.096Z,2.7
2018-12-19T05:51:33.346Z,2.75
2018-12-19T05:52:34.034Z,2.77
2018-12-19T05:53:35.001Z,2.75
2018-12-19T05:54:36.143Z,2.83
2018-12-19T05:55:36.831Z,2.85
2018-12-19T05:56:37.799Z,2.88
2018-12-19T05:57:39.046Z,2.82
2018-12-19T05:58:39.462Z,2.9
2018-12-19T05:59:41.161Z,2.79
2018-12-19T06:00:41.577Z,2.87
2018-12-19T06:01:42.991Z,2.93
2018-12-19T06:02:44.960Z,2.91
2018-12-19T06:03:44.652Z,2.97
2018-12-19T06:04:45.063Z,2.97
2018-12-19T06:05:46.199Z,3
2018-12-19T06:06:46.613Z,3.06
2018-12-19T06:07:48.029Z,3.09
2018-12-19T06:08:48.164Z,3.08
2018-12-19T06:09:48.989Z,3.09
2018-12-19T06:10:50.238Z,3.12
2018-12-19T06:11:50.650Z,3.06
2018-12-19T06:12:51.117Z,3.15
2018-12-19T06:13:52.530Z,3.13
2018-12-19T06:14:53.563Z,3.24
2018-12-19T06:15:53.258Z,3.12
2018-12-19T06:16:53.393Z,3.16
2018-12-19T06:17:53.871Z,3.05
2018-12-19T06:18:55.119Z,3.09
2018-12-19T06:19:55.681Z,3
2018-12-19T06:20:56.927Z,3.03
2018-12-19T06:21:57.619Z,2.95
2018-12-19T06:22:58.034Z,2.98
2018-12-19T06:23:58.747Z,2.93
2018-12-19T06:24:59.166Z,2.95
2018-12-19T06:25:59.581Z,2.91
2018-12-19T06:27:00.551Z,2.87
2018-12-19T06:28:00.798Z,2.93
2018-12-19T06:29:01.212Z,2.85
2018-12-19T06:30:02.593Z,2.94
2018-12-19T06:31:03.287Z,2.85
2018-12-19T06:32:03.979Z,2.93
2018-12-19T06:33:04.946Z,2.91
2018-12-19T06:34:05.637Z,2.93
2018-12-19T06:35:06.334Z,2.9
2018-12-19T06:36:06.803Z,2.93
2018-12-19T06:37:07.937Z,2.87
2018-12-19T06:38:09.350Z,2.94
2018-12-19T06:39:09.764Z,2.94
2018-12-19T06:40:10.444Z,2.94
2018-12-19T06:41:11.140Z,3
2018-12-19T06:42:11.553Z,3.01
2018-12-19T06:43:11.690Z,3.13
2018-12-19T06:44:12.385Z,3.11
2018-12-19T06:45:13.668Z,3.18
2018-12-19T06:46:14.364Z,3.22
2018-12-19T06:47:14.781Z,3.21
2018-12-19T06:48:16.027Z,3.29
2018-12-19T06:49:17.001Z,3.29
2018-12-19T06:50:17.546Z,3.27
2018-12-19T06:51:20.279Z,3.29
2018-12-19T06:52:21.419Z,3.3
2018-12-19T06:53:22.834Z,3.3
2018-12-19T06:54:24.080Z,3.3
2018-12-19T06:55:24.553Z,3.36
2018-12-19T06:56:25.251Z,3.41
2018-12-19T06:57:25.444Z,3.43
2018-12-19T06:58:25.857Z,3.34
2018-12-19T06:59:27.441Z,3.31
2018-12-19T07:00:27.816Z,3.33
2018-12-19T07:01:28.953Z,3.3
2018-12-19T07:02:29.369Z,3.27
2018-12-19T07:03:30.060Z,3.31
2018-12-19T07:04:30.475Z,3.29
2018-12-19T07:05:31.171Z,3.33
2018-12-19T07:06:31.864Z,3.31
2018-12-19T07:07:32.119Z,3.29
2018-12-19T07:08:32.539Z,3.33
2018-12-19T07:09:34.233Z,3.34
2018-12-19T07:10:40.352Z,3.3
2018-12-19T07:10:46.647Z,3.29
2018-12-19T07:11:47.207Z,3.31
2018-12-19T07:12:48.181Z,3.3
2018-12-19T07:13:49.155Z,3.33
2018-12-19T07:14:49.295Z,3.31
2018-12-19T07:15:50.899Z,3.22
2018-12-19T07:16:50.946Z,3.26
2018-12-19T07:17:52.285Z,3.33
2018-12-19T07:18:52.819Z,3.29
2018-12-19T07:19:53.514Z,3.24
2018-12-19T07:20:53.933Z,3.26
2018-12-19T07:21:54.403Z,3.36
2018-12-19T07:22:55.544Z,3.29
2018-12-19T07:23:56.514Z,3.34
2018-12-19T07:24:57.266Z,3.4
2018-12-19T07:25:58.237Z,3.49
2018-12-19T07:26:58.376Z,3.3
2018-12-19T07:27:58.797Z,3.43
2018-12-19T07:28:59.573Z,3.52
2018-12-19T07:30:00.712Z,3.4
2018-12-19T07:31:02.722Z,3.46
2018-12-19T07:32:03.171Z,3.41
2018-12-19T07:33:03.864Z,3.53
2018-12-19T07:34:04.835Z,3.59
2018-12-19T07:35:05.847Z,3.49
2018-12-19T07:36:06.375Z,3.59
2018-12-19T07:37:10.083Z,3.59
2018-12-19T07:37:17.825Z,3.52
2018-12-19T07:38:18.684Z,3.63
2018-12-19T07:39:19.930Z,3.59
2018-12-19T07:40:22.200Z,3.71
2018-12-19T07:41:21.651Z,3.68
2018-12-19T07:42:22.901Z,3.64
2018-12-19T07:43:23.319Z,3.68
2018-12-19T07:44:24.014Z,3.81
2018-12-19T07:45:25.271Z,3.7
2018-12-19T07:46:25.880Z,3.67
2018-12-19T07:47:26.885Z,3.77
2018-12-19T07:48:27.003Z,3.88
2018-12-19T07:49:27.827Z,3.84
2018-12-19T07:50:28.737Z,3.78
2018-12-19T07:51:29.709Z,3.78
2018-12-19T07:52:29.695Z,3.89
2018-12-19T07:53:30.111Z,3.94
2018-12-19T07:54:30.806Z,3.95
2018-12-19T07:55:31.266Z,3.95
2018-12-19T07:56:31.677Z,4.03
2018-12-19T07:57:31.654Z,3.86
2018-12-19T07:58:31.981Z,3.94
2018-12-19T07:59:33.241Z,3.92
2018-12-19T08:00:33.706Z,3.96
2018-12-19T08:01:34.427Z,4
2018-12-19T08:02:34.842Z,4.03
2018-12-19T08:03:35.323Z,4.16
2018-12-19T08:04:36.462Z,4.13
2018-12-19T08:05:37.436Z,4.09
2018-12-19T08:06:38.132Z,4.04
2018-12-19T08:07:39.110Z,4.1
2018-12-19T08:08:39.665Z,4.1
2018-12-19T08:09:39.806Z,4.13
2018-12-19T08:10:40.504Z,4.14
2018-12-19T08:11:41.477Z,4.2
2018-12-19T08:12:41.899Z,4.18
2018-12-19T08:13:42.597Z,4.16
2018-12-19T08:14:43.573Z,4.18
2018-12-19T08:15:43.712Z,4.22
2018-12-19T08:16:44.133Z,4.16
2018-12-19T08:17:44.554Z,4.21
2018-12-19T08:18:45.974Z,4.18
2018-12-19T08:19:46.708Z,4.18
2018-12-19T08:20:46.853Z,4.04
2018-12-19T08:21:47.688Z,4.13
2018-12-19T08:22:47.968Z,4.18
2018-12-19T08:23:48.385Z,4.12
2018-12-19T08:24:49.087Z,4.13
2018-12-19T08:25:50.783Z,4.2
2018-12-19T08:26:50.933Z,4.07
2018-12-19T08:27:52.077Z,4.06
2018-12-19T08:28:52.905Z,4.12
2018-12-19T08:29:54.159Z,4.14
2018-12-19T08:30:54.864Z,4.14
2018-12-19T08:31:55.771Z,4.14
2018-12-19T08:32:56.468Z,4.14
2018-12-19T08:33:56.492Z,4.14
2018-12-19T08:34:56.634Z,4.14
2018-12-19T08:35:57.054Z,4.24
2018-12-19T08:36:57.754Z,4.21
2018-12-19T08:37:58.738Z,4.18
2018-12-19T08:38:59.692Z,4.32
2018-12-19T08:39:59.521Z,4.27
2018-12-19T08:41:00.630Z,4.36
2018-12-19T08:42:01.049Z,4.31
2018-12-19T08:43:01.473Z,4.31
2018-12-19T08:44:02.864Z,4.34
2018-12-19T08:45:03.620Z,4.36
2018-12-19T08:46:05.788Z,4.48
2018-12-19T08:46:16.681Z,4.39
2018-12-19T08:47:17.689Z,4.48
2018-12-19T08:48:22.389Z,4.57
2018-12-19T08:48:33.328Z,4.49
2018-12-19T08:48:46.003Z,4.52
2018-12-19T08:48:58.828Z,4.53
2018-12-19T08:49:08.428Z,4.58
2018-12-19T08:50:08.563Z,4.61
2018-12-19T08:51:09.258Z,4.57
2018-12-19T08:52:09.955Z,4.56
2018-12-19T08:53:10.655Z,4.63
2018-12-19T08:54:11.077Z,4.58
2018-12-19T08:55:12.218Z,4.63
2018-12-19T08:56:13.192Z,4.64
2018-12-19T08:57:13.319Z,4.68
2018-12-19T08:58:13.737Z,4.74
2018-12-19T08:59:14.880Z,4.66
2018-12-19T09:00:15.432Z,4.71
2018-12-19T09:01:15.852Z,4.58
2018-12-19T09:02:17.287Z,4.68
2018-12-19T09:03:17.983Z,4.71
2018-12-19T09:04:18.679Z,4.64
2018-12-19T09:04:30.716Z,4.64
2018-12-19T09:05:31.309Z,4.52
2018-12-19T09:06:32.451Z,4.53
2018-12-19T09:07:33.704Z,4.57
2018-12-19T09:08:33.684Z,4.63
2018-12-19T09:09:35.384Z,4.53
2018-12-19T09:10:36.409Z,4.58
2018-12-19T09:11:36.553Z,4.63
2018-12-19T09:12:36.984Z,4.68
2018-12-19T09:13:37.958Z,4.67
2018-12-19T09:14:38.934Z,4.71
2018-12-19T09:15:39.335Z,4.67
2018-12-19T09:16:39.754Z,4.63
2018-12-19T09:17:40.898Z,4.71
2018-12-19T09:18:41.367Z,4.79
2018-12-19T09:19:42.124Z,4.86
2018-12-19T09:20:42.261Z,4.76
2018-12-19T09:21:43.687Z,4.86
2018-12-19T09:22:43.665Z,4.83
2018-12-19T09:23:45.092Z,4.79
2018-12-19T09:24:46.065Z,4.79
2018-12-19T09:25:46.899Z,4.78
2018-12-19T09:26:47.321Z,4.79
2018-12-19T09:27:48.464Z,4.9
2018-12-19T09:28:49.883Z,4.92
2018-12-19T09:29:50.032Z,4.94
2018-12-19T09:30:51.456Z,4.92
2018-12-19T09:31:51.629Z,4.82
2018-12-19T09:32:53.953Z,4.97
2018-12-19T09:33:55.089Z,4.95
2018-12-19T09:34:56.509Z,5
2018-12-19T09:35:57.620Z,5.02
2018-12-19T09:36:57.765Z,5.01
2018-12-19T09:37:58.187Z,5.01
2018-12-19T09:38:58.637Z,5.1
2018-12-19T09:39:59.336Z,5.05
2018-12-19T09:41:00.052Z,5.15
2018-12-19T09:42:00.752Z,5.1
2018-12-19T09:43:02.008Z,5.22
2018-12-19T09:44:01.990Z,5.15
2018-12-19T09:45:02.145Z,5.2
2018-12-19T09:46:02.701Z,5.12
2018-12-19T09:47:03.398Z,5.25
2018-12-19T09:48:04.374Z,5.13
2018-12-19T09:49:04.517Z,5.28
2018-12-19T09:49:16.831Z,5.22
2018-12-19T09:50:17.279Z,5.29
2018-12-19T09:51:18.427Z,5.28
2018-12-19T09:52:19.126Z,5.31
2018-12-19T09:53:19.826Z,5.34
2018-12-19T09:54:20.246Z,5.36
2018-12-19T09:55:21.667Z,5.41
2018-12-19T09:56:22.367Z,5.37
2018-12-19T09:57:23.345Z,5.31
2018-12-19T09:58:24.068Z,5.37
2018-12-19T09:59:24.321Z,5.38
2018-12-19T10:00:24.986Z,5.28
2018-12-19T10:01:25.407Z,5.4
2018-12-19T10:02:25.550Z,5.41
2018-12-19T10:03:26.248Z,5.47
2018-12-19T10:04:26.669Z,5.55
2018-12-19T10:05:27.811Z,5.55
2018-12-19T10:06:29.514Z,5.47
2018-12-19T10:07:30.702Z,5.58
2018-12-19T10:08:31.684Z,5.46
2018-12-19T10:09:32.514Z,5.56
2018-12-19T10:10:33.225Z,5.55
2018-12-19T10:11:33.642Z,5.54
2018-12-19T10:12:34.639Z,5.55
2018-12-19T10:13:36.062Z,5.61
2018-12-19T10:14:36.760Z,5.55
2018-12-19T10:15:37.781Z,5.64
2018-12-19T10:16:38.760Z,5.56
2018-12-19T10:17:42.260Z,5.59
2018-12-19T10:18:43.954Z,5.61
2018-12-19T10:19:43.722Z,5.61
2018-12-19T10:20:44.481Z,5.61
2018-12-19T10:21:44.902Z,5.55
2018-12-19T10:22:45.992Z,5.49
2018-12-19T10:23:47.327Z,5.58
2018-12-19T10:24:50.473Z,5.58
2018-12-19T10:25:49.255Z,5.58
2018-12-19T10:26:49.950Z,5.59
2018-12-19T10:27:50.648Z,5.55
2018-12-19T10:28:51.073Z,5.47
2018-12-19T10:29:51.805Z,5.47
2018-12-19T10:30:51.929Z,5.44
2018-12-19T10:31:52.907Z,5.47
2018-12-19T10:32:53.329Z,5.43
2018-12-19T10:33:54.305Z,5.41
2018-12-19T10:34:54.004Z,5.43
2018-12-19T10:35:54.424Z,5.44
2018-12-19T10:36:55.903Z,5.38
2018-12-19T10:37:56.432Z,5.36
2018-12-19T10:38:56.654Z,5.37
2018-12-19T10:39:57.206Z,5.36
2018-12-19T10:40:57.796Z,5.44
2018-12-19T10:41:58.215Z,5.4
2018-12-19T10:42:59.187Z,5.44
2018-12-19T10:43:59.329Z,5.44
2018-12-19T10:44:59.747Z,5.4
2018-12-19T10:46:01.440Z,5.4
2018-12-19T10:47:01.193Z,5.4
2018-12-19T10:48:03.000Z,5.44
2018-12-19T10:49:03.139Z,5.47
2018-12-19T10:50:03.559Z,5.51
2018-12-19T10:51:03.831Z,5.44
2018-12-19T10:52:04.526Z,5.41
2018-12-19T10:53:04.972Z,5.44
2018-12-19T10:54:05.403Z,5.49
2018-12-19T10:55:05.823Z,5.49
2018-12-19T10:56:07.524Z,5.55
2018-12-19T10:57:08.258Z,5.56
2018-12-19T10:58:09.087Z,5.58
2018-12-19T10:59:09.568Z,5.44
2018-12-19T11:00:10.529Z,5.56
2018-12-19T11:01:10.593Z,5.58
2018-12-19T11:02:11.436Z,5.54
2018-12-19T11:03:11.357Z,5.55
2018-12-19T11:04:12.777Z,5.55
2018-12-19T11:05:14.208Z,5.46
2018-12-19T11:06:14.626Z,5.56
2018-12-19T11:07:15.463Z,5.49
2018-12-19T11:08:16.439Z,5.46
2018-12-19T11:09:16.881Z,5.49
2018-12-19T11:10:17.301Z,5.51
2018-12-19T11:11:17.696Z,5.49
2018-12-19T11:12:19.981Z,5.55
2018-12-19T11:13:19.950Z,5.55
2018-12-19T11:14:19.922Z,5.58
2018-12-19T11:15:21.173Z,5.52
2018-12-19T11:16:21.371Z,5.62
2018-12-19T11:17:22.349Z,5.67
2018-12-19T11:18:22.782Z,5.58
2018-12-19T11:19:23.527Z,5.59
2018-12-19T11:20:24.305Z,5.64
2018-12-19T11:21:25.271Z,5.59
2018-12-19T11:22:26.416Z,5.67
2018-12-19T11:23:28.113Z,5.62
2018-12-19T11:24:31.340Z,5.7
2018-12-19T11:25:30.577Z,5.7
2018-12-19T11:26:31.000Z,5.77
2018-12-19T11:27:31.418Z,5.8
2018-12-19T11:28:32.392Z,5.79
2018-12-19T11:29:32.540Z,5.87
2018-12-19T11:30:34.029Z,5.88
2018-12-19T11:31:34.612Z,5.87
2018-12-19T11:32:35.316Z,5.9
2018-12-19T11:33:35.736Z,5.95
2018-12-19T11:34:36.453Z,5.95
2018-12-19T11:35:36.605Z,6.01
2018-12-19T11:36:37.308Z,5.95
2018-12-19T11:37:37.735Z,5.91
2018-12-19T11:38:38.726Z,6.05
2018-12-19T11:39:39.426Z,6.05
2018-12-19T11:40:39.849Z,6.07
2018-12-19T11:41:40.607Z,6.12
2018-12-19T11:42:41.748Z,6.15
2018-12-19T11:43:42.511Z,5.98
2018-12-19T11:44:43.820Z,6.09
2018-12-19T11:45:45.453Z,6.1
2018-12-19T11:46:44.979Z,6.22
2018-12-19T11:47:46.123Z,6.2
2018-12-19T11:48:47.541Z,6.12
2018-12-19T11:49:48.516Z,5.99
2018-12-19T11:50:48.937Z,6.1
2018-12-19T11:51:49.844Z,5.99
2018-12-19T11:52:52.208Z,6.09
2018-12-19T11:53:51.263Z,5.98
2018-12-19T11:54:51.692Z,6.13
2018-12-19T11:55:52.389Z,6.09
2018-12-19T11:56:53.089Z,6.16
2018-12-19T11:57:53.516Z,6.1
2018-12-19T11:58:54.852Z,6.13
2018-12-19T11:59:55.277Z,6.13
2018-12-19T12:00:55.255Z,6.19
2018-12-19T12:01:56.381Z,6.2
2018-12-19T12:02:57.017Z,6.34
2018-12-19T12:03:58.189Z,6.2
2018-12-19T12:04:57.616Z,6.25
2018-12-19T12:05:58.035Z,6.2
2018-12-19T12:06:58.733Z,6.28
2018-12-19T12:07:59.987Z,6.36
2018-12-19T12:09:00.770Z,6.31
2018-12-19T12:10:01.939Z,6.19
2018-12-19T12:11:01.924Z,6.22
2018-12-19T12:12:03.042Z,6.28
2018-12-19T12:13:04.016Z,6.19
2018-12-19T12:14:04.767Z,6.26
2018-12-19T12:15:05.749Z,6.34
2018-12-19T12:16:06.469Z,6.22
2018-12-19T12:17:06.914Z,6.35
2018-12-19T12:18:07.363Z,6.32
2018-12-19T12:19:07.922Z,6.32
2018-12-19T12:20:08.692Z,6.36
2018-12-19T12:21:09.391Z,6.38
2018-12-19T12:22:10.195Z,6.38
2018-12-19T12:23:10.968Z,6.34
2018-12-19T12:24:12.418Z,6.44
2018-12-19T12:25:13.393Z,6.41
2018-12-19T12:26:13.814Z,6.52
2018-12-19T12:27:14.537Z,6.44
2018-12-19T12:28:14.754Z,6.54
2018-12-19T12:29:15.911Z,6.54
2018-12-19T12:30:16.552Z,6.56
2018-12-19T12:31:17.324Z,6.65
2018-12-19T12:32:18.027Z,6.59
2018-12-19T12:33:18.454Z,6.53
2018-12-19T12:34:19.158Z,6.68
2018-12-19T12:35:20.154Z,6.7
2018-12-19T12:36:20.712Z,6.75
2018-12-19T12:37:21.893Z,6.71
2018-12-19T12:38:22.363Z,6.72
2018-12-19T12:39:23.908Z,6.93
2018-12-19T12:40:23.607Z,6.92
2018-12-19T12:41:24.861Z,6.8
2018-12-19T12:42:25.417Z,6.87
2018-12-19T12:43:27.112Z,6.85
2018-12-19T12:44:26.923Z,6.89
2018-12-19T12:45:28.063Z,6.89
2018-12-19T12:46:29.043Z,7
2018-12-19T12:47:30.069Z,7.05
2018-12-19T12:48:30.771Z,7.01
2018-12-19T12:49:31.473Z,7.01
2018-12-19T12:50:31.619Z,7.13
2018-12-19T12:51:32.049Z,7.03
2018-12-19T12:52:32.876Z,7.03
2018-12-19T12:53:33.297Z,7.07
2018-12-19T12:54:33.999Z,7.18
2018-12-19T12:55:36.046Z,7.18
2018-12-19T12:56:35.548Z,7.19
2018-12-19T12:57:36.761Z,7.04
2018-12-19T12:58:36.468Z,7.07
2018-12-19T12:59:37.568Z,7.18
2018-12-19T13:00:40.279Z,7.03
2018-12-19T13:01:40.743Z,7.04
2018-12-19T13:02:41.619Z,7.03
2018-12-19T13:03:42.345Z,7.01
2018-12-19T13:04:42.722Z,7.07
2018-12-19T13:05:43.615Z,7.18
2018-12-19T13:06:43.248Z,7.1
2018-12-19T13:07:48.691Z,7.18
2018-12-19T13:07:57.307Z,7.21
2018-12-19T13:08:56.545Z,7.19
2018-12-19T13:09:57.658Z,7.14
2018-12-19T13:10:58.409Z,7.19
2018-12-19T13:12:00.741Z,7.22
2018-12-19T13:13:01.687Z,7.25
2018-12-19T13:14:02.087Z,7.22
2018-12-19T13:15:02.710Z,7.21
2018-12-19T13:16:03.409Z,7.19
2018-12-19T13:17:04.383Z,7.26
2018-12-19T13:18:05.362Z,7.15
2018-12-19T13:19:07.037Z,7.22
2018-12-19T13:20:06.912Z,7.14
2018-12-19T13:21:08.332Z,7.15
2018-12-19T13:22:09.500Z,7.25
2018-12-19T13:23:10.271Z,7.18
2018-12-19T13:24:11.295Z,7.18
2018-12-19T13:25:11.993Z,7.15
2018-12-19T13:26:13.137Z,7.11
2018-12-19T13:27:13.567Z,7.13
2018-12-19T13:28:14.655Z,7.14
2018-12-19T13:29:14.595Z,7.01
2018-12-19T13:30:15.597Z,7.03
2018-12-19T13:31:16.668Z,6.96
2018-12-19T13:32:16.810Z,7.01
2018-12-19T13:33:18.228Z,7.04
2018-12-19T13:34:19.574Z,7.04
2018-12-19T13:35:20.550Z,7.01
2018-12-19T13:36:20.201Z,7.03
2018-12-19T13:37:20.745Z,7.08
2018-12-19T13:38:21.173Z,7.03
2018-12-19T13:39:22.581Z,7.05
2018-12-19T13:40:24.969Z,6.97
2018-12-19T13:41:23.428Z,7
2018-12-19T13:42:24.122Z,6.97
2018-12-19T13:43:25.101Z,6.97
2018-12-19T13:44:25.819Z,6.97
2018-12-19T13:45:26.517Z,6.9
2018-12-19T13:46:26.999Z,6.9
2018-12-19T13:47:27.750Z,6.85
2018-12-19T13:48:28.899Z,6.87
2018-12-19T13:49:31.188Z,6.82
2018-12-19T13:50:33.323Z,6.83
2018-12-19T13:51:32.060Z,6.9
2018-12-19T13:52:33.596Z,6.89
2018-12-19T13:53:33.849Z,6.85
2018-12-19T13:54:35.440Z,6.8
2018-12-19T13:55:35.890Z,6.83
2018-12-19T13:56:39.603Z,6.85
2018-12-19T13:57:38.304Z,6.75
2018-12-19T13:58:39.279Z,6.82
2018-12-19T13:59:39.689Z,6.87
2018-12-19T14:00:40.671Z,6.93
2018-12-19T14:01:41.150Z,6.92
2018-12-19T14:02:41.642Z,6.93
2018-12-19T14:03:42.339Z,6.92
2018-12-19T14:04:46.961Z,6.83
2018-12-19T14:05:44.816Z,6.85
2018-12-19T14:06:45.513Z,6.9
2018-12-19T14:07:45.932Z,6.9
2018-12-19T14:08:47.302Z,6.96
2018-12-19T14:09:47.442Z,6.92
2018-12-19T14:10:48.966Z,6.87
2018-12-19T14:11:49.594Z,6.93
2018-12-19T14:12:50.745Z,6.92
2018-12-19T14:13:51.911Z,6.96
2018-12-19T14:14:53.206Z,7
2018-12-19T14:15:53.368Z,6.97
2018-12-19T14:16:54.402Z,6.93
2018-12-19T14:17:55.101Z,6.97
2018-12-19T14:18:56.078Z,7.05
2018-12-19T14:19:58.634Z,6.97
2018-12-19T14:20:57.986Z,7.07
2018-12-19T14:21:58.967Z,6.95
2018-12-19T14:22:59.733Z,6.97
2018-12-19T14:24:01.160Z,7.01
2018-12-19T14:25:01.408Z,6.87
2018-12-19T14:26:02.395Z,6.86
2018-12-19T14:27:03.364Z,6.83
2018-12-19T14:28:04.341Z,6.85
2018-12-19T14:29:05.057Z,6.87
2018-12-19T14:30:05.333Z,6.86
2018-12-19T14:31:06.031Z,6.9
2018-12-19T14:32:06.459Z,6.78
2018-12-19T14:33:07.599Z,6.8
2018-12-19T14:34:09.292Z,6.8
2018-12-19T14:35:09.712Z,6.86
2018-12-19T14:36:10.707Z,6.74
2018-12-19T14:37:11.141Z,6.82
2018-12-19T14:38:12.563Z,6.77
2018-12-19T14:39:13.540Z,6.72
2018-12-19T14:40:14.026Z,6.65
2018-12-19T14:41:17.760Z,6.72
2018-12-19T14:42:20.151Z,6.68
2018-12-19T14:43:21.121Z,6.68
2018-12-19T14:44:21.543Z,6.65
2018-12-19T14:45:22.042Z,6.7
2018-12-19T14:46:22.181Z,6.64
2018-12-19T14:47:23.154Z,6.65
2018-12-19T14:48:24.129Z,6.59
2018-12-19T14:49:24.549Z,6.62
2018-12-19T14:50:29.324Z,6.47
2018-12-19T14:50:37.497Z,6.52
2018-12-19T14:51:38.325Z,6.54
2018-12-19T14:52:38.918Z,6.47
2018-12-19T14:53:40.339Z,6.49
2018-12-19T14:54:40.516Z,6.64
2018-12-19T14:55:41.243Z,6.6
2018-12-19T14:56:41.755Z,6.64
2018-12-19T14:57:44.272Z,6.67
2018-12-19T14:58:43.479Z,6.6
2018-12-19T14:59:48.347Z,6.64
2018-12-19T14:59:59.414Z,6.72
2018-12-19T15:00:13.341Z,6.6
2018-12-19T15:00:25.789Z,6.65
2018-12-19T15:00:36.681Z,6.62
2018-12-19T15:01:36.398Z,6.6
2018-12-19T15:02:37.092Z,6.71
2018-12-19T15:03:37.241Z,6.56
2018-12-19T15:04:38.001Z,6.7
2018-12-19T15:05:39.530Z,6.62
2018-12-19T15:06:39.669Z,6.71
2018-12-19T15:07:40.369Z,6.72
2018-12-19T15:08:41.624Z,6.57
2018-12-19T15:09:42.046Z,6.71
2018-12-19T15:10:42.780Z,6.74
2018-12-19T15:11:42.894Z,6.68
2018-12-19T15:12:44.421Z,6.64
2018-12-19T15:13:44.851Z,6.7
2018-12-19T15:14:45.826Z,6.74
2018-12-19T15:15:46.247Z,6.74
2018-12-19T15:16:47.496Z,6.65
2018-12-19T15:17:48.480Z,6.72
2018-12-19T15:18:48.452Z,6.6
2018-12-19T15:19:48.875Z,6.64
2018-12-19T15:20:49.294Z,6.46
2018-12-19T15:21:50.173Z,6.52
2018-12-19T15:22:51.598Z,6.49
2018-12-19T15:23:52.014Z,6.44
2018-12-19T15:24:52.293Z,6.41
2018-12-19T15:25:53.267Z,6.34
2018-12-19T15:26:54.244Z,6.32
2018-12-19T15:27:55.219Z,6.38
2018-12-19T15:28:55.706Z,6.38
2018-12-19T15:29:56.676Z,6.32
2018-12-19T15:30:56.649Z,6.32
2018-12-19T15:31:57.606Z,6.29
2018-12-19T15:32:58.299Z,6.28
2018-12-19T15:33:59.000Z,6.31
2018-12-19T15:35:00.137Z,6.2
2018-12-19T15:36:01.275Z,6.2
2018-12-19T15:37:01.754Z,6.25
2018-12-19T15:38:02.279Z,6.13
2018-12-19T15:39:02.971Z,6.16
2018-12-19T15:40:03.109Z,6.22
2018-12-19T15:41:03.804Z,6.12
2018-12-19T15:42:04.632Z,6.09
2018-12-19T15:43:05.883Z,6.07
2018-12-19T15:44:06.855Z,6.19
2018-12-19T15:45:07.831Z,6.13
2018-12-19T15:46:07.585Z,6.02
2018-12-19T15:47:07.725Z,6.1
2018-12-19T15:48:08.146Z,6.06
2018-12-19T15:49:08.566Z,5.94
2018-12-19T15:50:09.979Z,6.01
2018-12-19T15:51:10.672Z,5.92
2018-12-19T15:52:11.506Z,5.99
2018-12-19T15:53:11.921Z,5.99
2018-12-19T15:54:12.616Z,5.87
2018-12-19T15:55:13.032Z,5.87
2018-12-19T15:56:14.006Z,5.88
2018-12-19T15:57:14.430Z,5.87
2018-12-19T15:58:15.846Z,5.77
2018-12-19T15:59:16.983Z,5.73
2018-12-19T16:00:17.844Z,5.72
2018-12-19T16:01:18.814Z,5.7
2018-12-19T16:02:19.970Z,5.65
2018-12-19T16:03:20.665Z,5.64
2018-12-19T16:04:22.242Z,5.61
2018-12-19T16:05:21.973Z,5.59
2018-12-19T16:06:23.672Z,5.67
2018-12-19T16:07:24.538Z,5.61
2018-12-19T16:08:25.510Z,5.43